createdAt,value
2022-10-10T00:02:25.948Z,22.33
2022-10-10T00:08:56.669Z,22.3
2022-10-10T00:15:27.580Z,22.27
2022-10-10T00:21:54.745Z,22.26
2022-10-10T00:28:25.569Z,22.26
2022-10-10T00:35:03.631Z,22.25
2022-10-10T00:41:46.494Z,22.22
2022-10-10T00:48:31.549Z,22.28
2022-10-10T00:55:13.095Z,22.3
2022-10-10T01:01:59.569Z,22.32
2022-10-10T01:08:37.047Z,22.3
2022-10-10T01:15:39.956Z,22.23
2022-10-10T01:22:34.522Z,22.23
2022-10-10T01:29:40.942Z,22.24
2022-10-10T01:36:44.708Z,22.24
2022-10-10T01:44:03.558Z,22.22
2022-10-10T01:50:46.546Z,22.21
2022-10-10T01:57:43.540Z,22.21
2022-10-10T02:04:51.319Z,22.29
2022-10-10T02:11:47.425Z,22.2
2022-10-10T02:18:42.587Z,22.2
2022-10-10T02:25:29.198Z,22.15
2022-10-10T02:32:29.761Z,22.19
2022-10-10T02:39:09.484Z,22.18
2022-10-10T02:45:49.493Z,22.17
2022-10-10T02:52:22.570Z,22.12
2022-10-10T02:58:56.617Z,22.09
2022-10-10T03:05:23.632Z,22.1
2022-10-10T03:11:48.682Z,22.14
2022-10-10T03:18:21.785Z,22.13
2022-10-10T03:24:49.195Z,22.13
2022-10-10T03:31:15.002Z,22.14
2022-10-10T03:37:41.646Z,22.12
2022-10-10T03:44:11.561Z,22.12
2022-10-10T03:50:46.696Z,22.12
2022-10-10T03:57:15.704Z,22.14
2022-10-10T04:03:53.687Z,22.12
2022-10-10T04:10:21.534Z,22.13
2022-10-10T04:16:48.710Z,22.07
2022-10-10T04:23:25.638Z,22.06
2022-10-10T04:30:01.667Z,22.03
2022-10-10T04:36:33.625Z,22.04
2022-10-10T04:43:05.546Z,22.03
2022-10-10T04:49:36.694Z,22.03
2022-10-10T04:56:14.851Z,22.06
2022-10-10T05:02:52.029Z,22.15
2022-10-10T05:09:19.604Z,22.06
2022-10-10T05:15:54.670Z,22.09
2022-10-10T05:22:28.681Z,22.05
2022-10-10T05:29:02.811Z,22.03
2022-10-10T05:35:37.042Z,22.01
2022-10-10T05:42:03.703Z,22
2022-10-10T05:48:40.077Z,22.01
2022-10-10T05:55:19.648Z,21.98
2022-10-10T06:01:48.193Z,21.97
2022-10-10T06:08:15.780Z,21.97
2022-10-10T06:14:44.748Z,22.39
2022-10-10T06:21:18.667Z,22.78
2022-10-10T06:27:45.766Z,22.82
2022-10-10T06:34:21.566Z,22.9
2022-10-10T06:40:59.800Z,22.86
2022-10-10T06:47:42.598Z,22.89
2022-10-10T06:54:19.168Z,22.82
2022-10-10T07:00:51.733Z,22.82
2022-10-10T07:07:31.887Z,22.69
2022-10-10T07:13:58.785Z,22.63
2022-10-10T07:20:30.672Z,22.55
2022-10-10T07:27:06.459Z,22.5
2022-10-10T07:33:37.748Z,22.42
2022-10-10T07:40:04.774Z,22.47
2022-10-10T07:46:37.746Z,22.56
2022-10-10T07:53:22.172Z,22.63
2022-10-10T07:59:47.017Z,22.69
2022-10-10T08:06:22.182Z,22.63
2022-10-10T08:12:58.908Z,22.65
2022-10-10T08:19:24.780Z,22.62
2022-10-10T08:25:58.816Z,22.56
2022-10-10T08:32:41.206Z,22.63
2022-10-10T08:39:25.700Z,22.59
2022-10-10T08:46:14.000Z,22.59
2022-10-10T08:53:19.827Z,22.52
2022-10-10T09:00:21.279Z,22.51
2022-10-10T09:07:26.854Z,22.47
2022-10-10T09:14:30.773Z,22.42
2022-10-10T09:21:30.758Z,22.4
2022-10-10T09:28:31.897Z,22.41
2022-10-10T09:35:45.146Z,22.42
2022-10-10T09:42:59.622Z,22.36
2022-10-10T09:49:55.856Z,22.38
2022-10-10T09:56:36.998Z,22.34
2022-10-10T10:03:56.409Z,22.37
2022-10-10T10:10:53.830Z,22.4
2022-10-10T10:17:59.900Z,22.36
2022-10-10T10:24:57.268Z,22.37
2022-10-10T10:32:06.041Z,22.37
2022-10-10T10:39:10.414Z,22.37
2022-10-10T10:46:11.999Z,22.33
2022-10-10T10:53:35.809Z,22.33
2022-10-10T11:01:22.805Z,22.38
2022-10-10T11:08:19.839Z,22.34
2022-10-10T11:15:47.915Z,22.25
2022-10-10T11:22:54.862Z,22.34
2022-10-10T11:29:57.130Z,22.3
2022-10-10T11:37:20.192Z,22.39
2022-10-10T11:44:38.208Z,22.43
2022-10-10T11:51:58.042Z,22.39
2022-10-10T11:59:25.523Z,22.44
2022-10-10T12:06:40.933Z,22.46
2022-10-10T12:13:58.008Z,22.55
2022-10-10T12:20:57.363Z,22.39
2022-10-10T12:28:04.075Z,22.4
2022-10-10T12:34:53.139Z,22.42
2022-10-10T12:41:46.313Z,22.36
2022-10-10T12:48:57.452Z,22.4
2022-10-10T12:56:03.228Z,22.5
2022-10-10T13:02:55.980Z,22.44
2022-10-10T13:09:39.908Z,22.54
2022-10-10T13:16:41.965Z,22.47
2022-10-10T13:23:26.845Z,22.49
2022-10-10T13:30:01.386Z,22.49
2022-10-10T13:36:45.361Z,22.52
2022-10-10T13:43:28.952Z,22.61
2022-10-10T13:50:34.906Z,22.82
2022-10-10T13:57:29.437Z,22.72
2022-10-10T14:04:30.890Z,22.77
2022-10-10T14:11:25.406Z,22.84
2022-10-10T14:18:23.339Z,22.88
2022-10-10T14:25:14.057Z,22.87
2022-10-10T14:31:58.364Z,22.74
2022-10-10T14:38:54.839Z,22.65
2022-10-10T14:46:15.775Z,22.52
2022-10-10T14:54:09.892Z,22.53
2022-10-10T15:01:33.125Z,22.39
2022-10-10T15:09:40.351Z,22.4
2022-10-10T15:17:22.358Z,22.37
2022-10-10T15:25:09.742Z,22.36
2022-10-10T15:32:57.327Z,22.19
2022-10-10T15:40:38.374Z,22.19
2022-10-10T15:48:13.810Z,22.09
2022-10-10T15:55:52.427Z,22.15
2022-10-10T16:03:42.875Z,22.03
2022-10-10T16:11:26.582Z,22.03
2022-10-10T16:19:04.842Z,22.04
2022-10-10T16:26:45.270Z,22.05
2022-10-10T16:34:19.348Z,22.11
2022-10-10T16:41:48.889Z,22.16
2022-10-10T16:49:34.625Z,22.11
2022-10-10T16:57:14.351Z,22.15
2022-10-10T17:04:42.880Z,22.14
2022-10-10T17:12:21.849Z,22.19
2022-10-10T17:19:48.211Z,22.04
2022-10-10T17:27:25.034Z,22.12
2022-10-10T17:34:47.998Z,21.98
2022-10-10T17:42:30.631Z,21.96
2022-10-10T17:50:10.512Z,22.04
2022-10-10T17:57:49.290Z,22.11
2022-10-10T18:05:37.587Z,21.99
2022-10-10T18:13:01.025Z,22.05
2022-10-10T18:20:33.956Z,21.99
2022-10-10T18:28:26.093Z,21.97
2022-10-10T18:36:01.624Z,21.85
2022-10-10T18:43:49.974Z,21.83
2022-10-10T18:51:44.274Z,21.89
2022-10-10T18:59:28.139Z,21.84
2022-10-10T19:07:14.772Z,21.81
2022-10-10T19:14:46.508Z,21.8
2022-10-10T19:22:30.846Z,21.85
2022-10-10T19:30:14.556Z,21.88
2022-10-10T19:37:52.389Z,21.85
2022-10-10T19:45:44.056Z,21.79
2022-10-10T19:53:28.073Z,21.74
2022-10-10T20:01:28.312Z,21.76
2022-10-10T20:09:00.300Z,21.74
2022-10-10T20:16:32.080Z,21.75
2022-10-10T20:24:14.549Z,21.73
2022-10-10T20:32:09.477Z,21.73
2022-10-10T20:39:55.993Z,21.72
2022-10-10T20:47:44.076Z,21.72
2022-10-10T20:55:39.211Z,21.72
2022-10-10T21:03:29.661Z,21.75
2022-10-10T21:11:29.519Z,21.8
2022-10-10T21:19:09.941Z,21.85
2022-10-10T21:26:56.731Z,21.9
2022-10-10T21:34:36.377Z,21.89
2022-10-10T21:42:32.101Z,21.85
2022-10-10T21:50:06.836Z,21.95
2022-10-10T21:57:50.485Z,21.87
2022-10-10T22:05:31.342Z,21.81
2022-10-10T22:13:09.047Z,21.81
2022-10-10T22:20:46.732Z,21.79
2022-10-10T22:28:21.824Z,22.01
2022-10-10T22:35:52.151Z,21.92
2022-10-10T22:43:39.259Z,21.81
2022-10-10T22:51:13.353Z,21.79
2022-10-10T22:58:52.096Z,21.75
2022-10-10T23:06:30.762Z,21.78
2022-10-10T23:14:00.324Z,21.83
2022-10-10T23:21:51.014Z,21.74
2022-10-10T23:29:32.172Z,21.78
2022-10-10T23:37:02.776Z,21.76
2022-10-10T23:44:41.935Z,21.76
2022-10-10T23:52:25.650Z,21.75
